createdAt,value
2018-03-08T00:27:04.589Z,59.04
2018-03-08T00:29:43.730Z,58.30
2018-03-08T00:35:09.435Z,57.44
2018-03-08T00:37:48.864Z,56.96
2018-03-08T00:40:28.704Z,57.55
2018-03-08T00:43:02.181Z,57.56
2018-03-08T00:45:48.141Z,58.10
2018-03-08T00:48:26.644Z,58.06
2018-03-08T00:51:20.687Z,58.09
2018-03-08T00:53:59.370Z,58.29
2018-03-08T00:56:36.538Z,57.45
2018-03-08T00:59:08.566Z,56.95
2018-03-08T01:01:53.128Z,56.35
2018-03-08T01:04:25.153Z,56.54
2018-03-08T01:09:49.546Z,56.11
2018-03-08T01:12:24.599Z,55.85
2018-03-08T01:15:01.029Z,55.30
2018-03-08T01:17:37.717Z,54.65
2018-03-08T01:20:26.602Z,54.72
2018-03-08T01:25:52.598Z,55.63
2018-03-08T01:28:26.234Z,55.38
2018-03-08T01:31:02.806Z,53.76
2018-03-08T01:33:45.357Z,54.63
2018-03-08T01:36:32.738Z,55.52
2018-03-08T01:39:12.282Z,54.63
2018-03-08T01:41:50.662Z,54.54
2018-03-08T01:44:26.085Z,54.88
2018-03-08T01:47:00.088Z,54.46
2018-03-08T01:49:43.883Z,53.96
2018-03-08T01:52:17.452Z,53.65
2018-03-08T01:54:54.788Z,54.46
2018-03-08T01:57:33.809Z,55.00
2018-03-08T02:00:03.891Z,54.42
2018-03-08T02:02:47.466Z,53.69
2018-03-08T02:05:22.288Z,53.82
2018-03-08T02:07:54.220Z,52.89
2018-03-08T02:10:45.896Z,52.33
2018-03-08T02:13:22.714Z,52.46
2018-03-08T02:16:05.843Z,52.46
2018-03-08T02:18:42.302Z,52.32
2018-03-08T02:21:15.990Z,51.60
2018-03-08T02:23:59.870Z,51.89
2018-03-08T02:26:42.421Z,52.02
2018-03-08T02:29:21.226Z,51.48
2018-03-08T02:31:58.361Z,51.88
2018-03-08T02:34:36.559Z,52.17
2018-03-08T02:37:07.949Z,52.80
2018-03-08T02:39:43.497Z,52.97
2018-03-08T02:42:18.960Z,52.70
2018-03-08T02:44:51.948Z,52.90
2018-03-08T02:47:41.829Z,52.59
2018-03-08T02:50:26.265Z,53.34
2018-03-08T02:53:04.403Z,53.51
2018-03-08T02:55:39.551Z,53.67
2018-03-08T02:58:14.500Z,53.16
2018-03-08T03:00:51.886Z,53.64
2018-03-08T03:03:28.589Z,53.88
2018-03-08T03:06:07.088Z,53.88
2018-03-08T03:08:48.481Z,53.76
2018-03-08T03:11:23.269Z,53.59
2018-03-08T03:14:05.411Z,53.33
2018-03-08T03:16:41.197Z,53.69
2018-03-08T03:19:18.465Z,53.49
2018-03-08T03:21:53.598Z,53.01
2018-03-08T03:24:31.386Z,53.35
2018-03-08T03:27:09.114Z,53.29
2018-03-08T03:29:46.546Z,53.14
2018-03-08T03:32:30.236Z,53.77
2018-03-08T03:35:14.752Z,53.84
2018-03-08T03:38:02.085Z,53.91
2018-03-08T03:40:39.912Z,53.51
2018-03-08T03:43:22.683Z,53.52
2018-03-08T03:45:59.987Z,53.77
2018-03-08T03:48:38.430Z,54.08
2018-03-08T03:51:17.114Z,54.15
2018-03-08T03:53:58.020Z,54.25
2018-03-08T03:56:45.707Z,54.29
2018-03-08T03:59:21.791Z,54.15
2018-03-08T04:01:59.470Z,54.40
2018-03-08T04:04:36.791Z,54.76
2018-03-08T04:07:10.656Z,55.43
2018-03-08T04:09:45.738Z,55.47
2018-03-08T04:12:22.216Z,55.55
2018-03-08T04:15:01.731Z,55.52
2018-03-08T04:17:33.486Z,55.02
2018-03-08T04:20:08.271Z,55.20
2018-03-08T04:22:43.200Z,55.06
2018-03-08T04:25:17.906Z,54.80
2018-03-08T04:27:53.783Z,54.56
2018-03-08T04:33:17.348Z,56.10
2018-03-08T04:35:56.828Z,56.06
2018-03-08T04:38:34.176Z,55.94
2018-03-08T04:41:12.721Z,56.47
2018-03-08T04:43:50.967Z,56.77
2018-03-08T04:46:33.958Z,56.90
2018-03-08T04:49:14.423Z,57.12
2018-03-08T04:52:02.084Z,57.58
2018-03-08T04:54:50.156Z,57.58
2018-03-08T04:57:26.679Z,57.89
2018-03-08T05:00:12.752Z,56.22
2018-03-08T05:02:47.439Z,56.67
2018-03-08T05:05:24.748Z,57.53
2018-03-08T05:07:59.940Z,56.64
2018-03-08T05:10:36.458Z,57.20
2018-03-08T05:13:14.532Z,56.08
2018-03-08T05:16:01.736Z,56.31
2018-03-08T05:18:40.778Z,58.01
2018-03-08T05:21:20.416Z,59.58
2018-03-08T05:23:55.691Z,59.08
2018-03-08T05:26:37.853Z,58.37
2018-03-08T05:29:32.125Z,58.26
2018-03-08T05:32:07.315Z,59.42
2018-03-08T05:34:47.895Z,59.34
2018-03-08T05:37:23.150Z,58.93
2018-03-08T05:40:06.972Z,57.97
2018-03-08T05:42:48.336Z,57.85
2018-03-08T05:45:35.878Z,58.02
2018-03-08T07:17:55.306Z,59.75
2018-03-08T07:20:29.194Z,58.96
2018-03-08T07:25:53.112Z,58.10
2018-03-08T07:28:41.018Z,57.26
2018-03-08T07:31:18.821Z,56.26
2018-03-08T07:33:56.422Z,55.53
2018-03-08T07:36:45.070Z,55.13
2018-03-08T07:39:30.446Z,55.93
2018-03-08T07:42:14.322Z,55.85
2018-03-08T07:44:52.630Z,55.15
2018-03-08T07:47:44.254Z,56.92
2018-03-08T07:50:25.013Z,56.17
2018-03-08T07:53:04.703Z,54.98
2018-03-08T07:55:43.667Z,54.27
2018-03-08T07:58:21.230Z,53.84
2018-03-08T08:01:08.937Z,53.70
2018-03-08T08:03:43.847Z,52.43
2018-03-08T08:06:35.842Z,52.00
2018-03-08T08:09:19.094Z,50.12
2018-03-08T08:11:58.300Z,51.42
2018-03-08T08:14:50.621Z,51.73
2018-03-08T08:17:27.704Z,52.29
2018-03-08T08:23:07.128Z,50.31
2018-03-08T08:25:45.103Z,50.29
2018-03-08T08:28:28.412Z,48.92
2018-03-08T08:31:04.337Z,49.04
2018-03-08T08:33:46.395Z,48.15
2018-03-08T08:36:23.825Z,47.31
2018-03-08T08:39:09.209Z,47.53
2018-03-08T08:41:49.640Z,46.41
2018-03-08T08:44:24.778Z,46.83
2018-03-08T08:46:57.558Z,46.67
2018-03-08T08:52:13.586Z,45.70
2018-03-08T08:54:55.170Z,45.30
2018-03-08T08:57:28.899Z,44.19
2018-03-08T09:00:10.589Z,44.64
2018-03-08T09:02:54.246Z,43.72
2018-03-08T09:08:31.504Z,43.99
2018-03-08T09:11:03.083Z,43.43
2018-03-08T09:13:37.054Z,42.50
2018-03-08T09:16:10.294Z,42.57
2018-03-08T09:18:43.493Z,42.84
2018-03-08T09:21:14.867Z,42.31
2018-03-08T09:23:47.621Z,43.53
2018-03-08T09:26:21.661Z,42.96
2018-03-08T09:28:57.765Z,42.25
2018-03-08T09:31:35.303Z,41.86
2018-03-08T09:34:14.819Z,40.73
2018-03-08T09:36:57.779Z,40.89
2018-03-08T09:39:48.606Z,40.36
2018-03-08T09:45:40.449Z,39.36
2018-03-08T09:51:24.800Z,39.35
2018-03-08T09:53:56.177Z,39.38
2018-03-08T09:56:27.974Z,39.23
2018-03-08T09:59:02.446Z,36.80
2018-03-08T10:01:35.566Z,37.65
2018-03-08T10:04:12.059Z,37.04
2018-03-08T10:10:03.940Z,37.25
2018-03-08T10:22:22.667Z,33.92
2018-03-08T10:24:55.047Z,32.76
2018-03-08T10:27:25.124Z,33.43
2018-03-08T12:55:46.247Z,27.61
2018-03-08T17:52:24.569Z,50.96
2018-03-08T19:22:11.335Z,54.43
2018-03-08T19:25:09.966Z,53.75
2018-03-08T19:47:09.706Z,55.07
2018-03-08T20:56:00.747Z,58.56
2018-03-08T20:58:34.331Z,59.57
2018-03-08T21:01:08.732Z,59.51
2018-03-08T21:06:38.567Z,58.32
2018-03-08T21:15:06.344Z,58.23
2018-03-08T21:17:39.133Z,59.51
2018-03-08T21:22:51.310Z,59.82
2018-03-08T21:28:05.386Z,59.07
2018-03-08T21:33:35.404Z,59.16
2018-03-08T21:36:17.979Z,58.86
2018-03-08T21:41:52.091Z,59.08
2018-03-08T21:44:43.320Z,58.66
2018-03-08T22:04:33.536Z,58.63
2018-03-08T22:07:11.857Z,58.23
2018-03-08T22:12:30.797Z,58.28
2018-03-08T22:15:09.869Z,58.72
2018-03-08T22:17:41.643Z,61.10
2018-03-08T22:20:13.787Z,60.92
2018-03-08T22:22:50.473Z,61.41
2018-03-08T22:25:27.870Z,60.80
2018-03-08T22:32:13.629Z,59.68
2018-03-08T22:34:51.935Z,59.89
2018-03-08T22:41:01.611Z,63.29
2018-03-08T22:44:17.683Z,62.74
2018-03-08T22:47:02.383Z,61.23
2018-03-08T22:49:38.966Z,60.91
2018-03-08T22:55:40.367Z,62.48
2018-03-08T22:58:15.684Z,62.95
2018-03-08T23:44:12.214Z,63.76
2018-03-08T23:46:54.828Z,63.80
